createdAt,value
2018-06-19T00:08:43.191Z,17.80
2018-06-19T00:13:47.186Z,17.60
2018-06-19T00:18:54.661Z,17.60
2018-06-19T00:23:58.639Z,17.50
2018-06-19T00:29:02.643Z,17.50
2018-06-19T00:34:06.621Z,17.60
2018-06-19T00:39:12.500Z,17.20
2018-06-19T00:44:16.485Z,17.20
2018-06-19T00:49:20.470Z,17.40
2018-06-19T00:54:24.606Z,17.50
2018-06-19T00:59:28.806Z,17.50
2018-06-19T01:04:32.768Z,17.40
2018-06-19T01:09:36.748Z,17.10
2018-06-19T01:14:40.731Z,17.20
2018-06-19T01:19:45.131Z,17.10
2018-06-19T01:24:49.115Z,17.60
2018-06-19T01:29:53.087Z,17.30
2018-06-19T01:34:57.076Z,17.10
2018-06-19T01:40:01.068Z,17.00
2018-06-19T01:50:08.668Z,17.30
2018-06-19T01:55:12.747Z,17.20
2018-06-19T02:00:16.751Z,17.30
2018-06-19T02:05:20.742Z,17.00
2018-06-19T02:10:24.767Z,17.00
2018-06-19T02:15:28.731Z,17.30
2018-06-19T02:25:36.320Z,17.50
2018-06-19T02:30:40.304Z,17.20
2018-06-19T02:35:44.268Z,17.50
2018-06-19T02:40:48.252Z,17.20
2018-06-19T02:45:52.191Z,17.40
2018-06-19T02:50:56.175Z,17.20
2018-06-19T03:01:03.899Z,17.40
2018-06-19T03:06:07.897Z,17.50
2018-06-19T03:11:11.877Z,17.30
2018-06-19T03:16:15.904Z,17.20
2018-06-19T03:21:19.888Z,17.30
2018-06-19T03:26:23.879Z,17.10
2018-06-19T03:31:27.858Z,17.10
2018-06-19T03:36:32.768Z,16.90
2018-06-19T03:41:36.759Z,16.90
2018-06-19T03:46:41.514Z,16.90
2018-06-19T03:51:45.518Z,16.90
2018-06-19T03:56:49.543Z,17.20
2018-06-19T04:01:53.562Z,16.80
2018-06-19T04:06:57.565Z,16.90
2018-06-19T04:12:01.562Z,16.80
2018-06-19T04:17:05.567Z,16.70
2018-06-19T04:22:10.415Z,17.00
2018-06-19T04:27:14.379Z,16.80
2018-06-19T04:32:18.347Z,17.00
2018-06-19T04:37:22.336Z,17.00
2018-06-19T04:42:26.296Z,17.50
2018-06-19T04:47:30.280Z,17.60
2018-06-19T04:52:34.524Z,17.40
2018-06-19T04:57:38.505Z,17.50
2018-06-19T05:02:42.493Z,17.70
2018-06-19T05:07:46.520Z,17.30
2018-06-19T05:12:50.533Z,17.40
2018-06-19T05:17:55.322Z,17.60
2018-06-19T05:22:59.332Z,17.80
2018-06-19T05:28:03.308Z,18.00
2018-06-19T05:33:07.278Z,17.80
2018-06-19T05:38:11.298Z,17.60
2018-06-19T05:43:15.303Z,17.70
2018-06-19T05:48:19.319Z,17.30
2018-06-19T05:53:23.315Z,17.60
2018-06-19T05:58:27.836Z,17.80
2018-06-19T06:03:31.826Z,17.90
2018-06-19T06:08:35.798Z,17.80
2018-06-19T06:13:39.815Z,18.10
2018-06-19T06:18:43.823Z,17.80
2018-06-19T06:23:47.783Z,17.90
2018-06-19T06:28:51.759Z,18.00
2018-06-19T06:33:55.807Z,18.00
2018-06-19T06:38:59.790Z,18.20
2018-06-19T06:44:03.801Z,17.80
2018-06-19T06:49:07.784Z,17.80
2018-06-19T06:54:11.783Z,18.10
2018-06-19T06:59:15.769Z,18.40
2018-06-19T07:04:19.745Z,18.50
2018-06-19T07:14:27.404Z,18.80
2018-06-19T07:19:31.419Z,18.90
2018-06-19T07:24:35.353Z,18.60
2018-06-19T07:29:39.351Z,18.70
2018-06-19T07:34:43.327Z,18.60
2018-06-19T07:39:47.319Z,18.50
2018-06-19T07:44:51.298Z,18.90
2018-06-19T07:49:55.304Z,19.10
2018-06-19T07:54:59.324Z,18.10
2018-06-19T08:00:03.342Z,18.80
2018-06-19T08:05:07.300Z,18.80
2018-06-19T08:10:11.266Z,18.50
2018-06-19T08:15:15.287Z,18.40
2018-06-19T08:20:19.287Z,18.60
2018-06-19T08:25:23.283Z,18.60
2018-06-19T08:30:27.291Z,18.00
2018-06-19T08:35:31.340Z,18.20
2018-06-19T08:40:35.299Z,18.40
2018-06-19T08:45:39.295Z,18.70
2018-06-19T08:50:43.291Z,18.90
2018-06-19T08:55:47.266Z,19.00
2018-06-19T09:00:51.264Z,18.80
2018-06-19T09:05:55.322Z,19.20
2018-06-19T09:11:00.195Z,19.00
2018-06-19T09:16:04.382Z,19.30
2018-06-19T09:21:08.923Z,19.60
2018-06-19T09:26:12.912Z,20.10
2018-06-19T09:31:16.936Z,19.90
2018-06-19T09:36:20.900Z,20.00
2018-06-19T09:41:24.883Z,20.10
2018-06-19T09:46:28.893Z,20.20
2018-06-19T09:51:32.979Z,20.50
2018-06-19T09:56:36.931Z,20.20
2018-06-19T10:01:40.935Z,20.40
2018-06-19T10:06:44.926Z,20.40
2018-06-19T10:11:49.170Z,20.80
2018-06-19T10:16:53.127Z,20.50
2018-06-19T10:21:57.119Z,20.00
2018-06-19T10:27:01.109Z,20.60
2018-06-19T10:32:05.368Z,21.20
2018-06-19T10:37:09.374Z,21.50
2018-06-19T10:42:13.345Z,21.00
2018-06-19T10:47:17.319Z,21.80
2018-06-19T10:52:21.463Z,22.20
2018-06-19T10:57:25.443Z,21.70
2018-06-19T11:02:29.447Z,22.60
2018-06-19T11:07:33.455Z,22.80
2018-06-19T11:12:37.471Z,22.70
2018-06-19T11:17:41.479Z,22.70
2018-06-19T11:22:45.505Z,22.90
2018-06-19T11:27:49.475Z,22.60
2018-06-19T11:37:57.076Z,22.20
2018-06-19T11:43:01.071Z,22.40
2018-06-19T11:53:08.716Z,22.60
2018-06-19T11:58:12.727Z,22.50
2018-06-19T12:03:16.739Z,23.30
2018-06-19T12:08:20.720Z,23.60
2018-06-19T12:13:24.719Z,24.60
2018-06-19T12:18:28.735Z,24.70
2018-06-19T12:23:32.718Z,24.70
2018-06-19T12:28:36.702Z,25.70
2018-06-19T12:33:40.741Z,25.20
2018-06-19T12:38:44.918Z,25.20
2018-06-19T12:43:48.892Z,24.30
2018-06-19T12:48:53.055Z,24.50
2018-06-19T12:54:08.469Z,24.80
2018-06-19T12:59:12.676Z,24.60
2018-06-19T13:04:28.065Z,25.20
2018-06-19T13:09:32.044Z,25.40
2018-06-19T13:14:39.910Z,24.20
2018-06-19T13:19:55.137Z,23.20
2018-06-19T13:24:59.123Z,24.20
2018-06-19T13:30:14.563Z,24.50
2018-06-19T13:35:18.599Z,24.60
2018-06-19T13:46:30.167Z,24.90
2018-06-19T13:51:34.174Z,24.90
2018-06-19T13:57:26.492Z,25.80
2018-06-19T14:02:30.501Z,26.20
2018-06-19T14:07:40.028Z,25.60
2018-06-19T14:13:03.325Z,25.10
2018-06-19T14:18:07.488Z,25.40
2018-06-19T14:23:11.800Z,26.00
2018-06-19T14:28:15.813Z,26.00
2018-06-19T14:33:19.775Z,26.10
2018-06-19T14:38:23.944Z,26.30
2018-06-19T14:48:31.519Z,25.80
2018-06-19T14:53:35.495Z,26.40
2018-06-19T14:58:39.515Z,26.10
2018-06-19T15:03:43.513Z,26.20
2018-06-19T15:13:51.120Z,26.10
2018-06-19T15:18:55.159Z,25.90
2018-06-19T15:23:59.162Z,26.40
2018-06-19T15:29:03.159Z,25.30
2018-06-19T15:39:13.370Z,25.70
2018-06-19T15:44:17.358Z,25.60
2018-06-19T15:49:21.354Z,25.10
2018-06-19T15:54:25.339Z,25.80
2018-06-19T15:59:29.343Z,25.40
2018-06-19T16:04:33.302Z,25.50
2018-06-19T16:09:37.311Z,25.10
2018-06-19T16:14:41.400Z,25.30
2018-06-19T16:19:45.398Z,26.50
2018-06-19T16:24:49.392Z,25.60
2018-06-19T16:34:56.974Z,25.50
2018-06-19T16:40:00.959Z,25.40
2018-06-19T16:50:08.808Z,25.10
2018-06-19T16:55:13.684Z,24.90
2018-06-19T17:00:18.442Z,24.80
2018-06-19T17:05:22.426Z,24.60
2018-06-19T17:10:26.522Z,24.70
2018-06-19T17:15:30.503Z,25.30
2018-06-19T17:20:34.446Z,25.20
2018-06-19T17:25:38.439Z,25.10
2018-06-19T17:30:43.344Z,24.60
2018-06-19T17:35:47.314Z,24.80
2018-06-19T17:40:51.331Z,25.00
2018-06-19T17:45:56.110Z,24.90
2018-06-19T17:51:00.094Z,24.90
2018-06-19T17:56:04.091Z,24.70
2018-06-19T18:01:08.067Z,24.60
2018-06-19T18:06:12.062Z,24.70
2018-06-19T18:11:16.075Z,24.60
2018-06-19T18:16:20.035Z,24.40
2018-06-19T18:21:24.022Z,24.20
2018-06-19T18:26:28.011Z,24.20
2018-06-19T18:31:32.151Z,24.10
2018-06-19T18:36:36.119Z,23.90
2018-06-19T18:41:40.420Z,23.60
2018-06-19T18:46:44.484Z,23.50
2018-06-19T18:51:48.403Z,23.60
2018-06-19T18:56:52.375Z,23.30
2018-06-19T19:01:56.377Z,23.50
2018-06-19T19:07:00.426Z,23.50
2018-06-19T19:12:04.467Z,23.40
2018-06-19T19:17:13.756Z,23.40
2018-06-19T19:22:17.770Z,23.40
2018-06-19T19:32:31.047Z,23.20
2018-06-19T19:37:40.532Z,23.10
2018-06-19T19:42:45.413Z,22.90
2018-06-19T19:47:54.899Z,22.90
2018-06-19T19:52:58.908Z,23.00
2018-06-19T20:03:12.189Z,22.90
2018-06-19T20:08:22.655Z,22.80
2018-06-19T20:13:26.690Z,22.70
2018-06-19T20:23:34.347Z,22.70
2018-06-19T20:28:38.342Z,22.60
2018-06-19T20:33:42.330Z,22.50
2018-06-19T20:38:47.904Z,22.50
2018-06-19T20:43:52.046Z,22.40
2018-06-19T20:48:59.144Z,22.40
2018-06-19T20:54:03.166Z,22.30
2018-06-19T20:59:07.486Z,22.40
2018-06-19T21:04:11.770Z,22.40
2018-06-19T21:09:15.726Z,22.30
2018-06-19T21:14:19.730Z,22.20
2018-06-19T21:19:23.727Z,22.10
2018-06-19T21:24:27.785Z,22.20
2018-06-19T21:34:36.146Z,22.10
2018-06-19T21:39:40.268Z,22.00
2018-06-19T21:44:44.531Z,22.00
2018-06-19T21:49:48.543Z,21.90
2018-06-19T21:54:52.665Z,21.90
2018-06-19T21:59:56.678Z,21.70
2018-06-19T22:05:01.719Z,21.90
2018-06-19T22:10:05.763Z,21.80
2018-06-19T22:15:10.011Z,21.80
2018-06-19T22:20:14.019Z,21.90
2018-06-19T22:25:17.999Z,21.60
2018-06-19T22:30:22.000Z,21.70
2018-06-19T22:35:25.972Z,21.70
2018-06-19T22:45:33.595Z,21.60
2018-06-19T22:50:37.608Z,21.60
2018-06-19T22:55:41.575Z,21.70
2018-06-19T23:00:45.559Z,21.70
2018-06-19T23:05:49.582Z,21.50
2018-06-19T23:10:53.578Z,21.20
2018-06-19T23:15:57.574Z,21.00
2018-06-19T23:21:01.684Z,20.60
2018-06-19T23:26:05.651Z,20.70
2018-06-19T23:31:09.701Z,20.90
2018-06-19T23:36:13.682Z,21.20
2018-06-19T23:41:17.647Z,21.30
2018-06-19T23:46:21.648Z,21.20
2018-06-19T23:51:25.626Z,21.10
2018-06-19T23:56:29.612Z,21.30
